createdAt,value
2019-03-08T00:00:56.437Z,3.50
2019-03-08T00:06:02.384Z,3.90
2019-03-08T00:11:08.281Z,4.83
2019-03-08T00:16:14.291Z,4.33
2019-03-08T00:21:20.347Z,5.10
2019-03-08T00:26:26.857Z,4.35
2019-03-08T00:31:32.940Z,10.13
2019-03-08T00:36:39.019Z,3.87
2019-03-08T00:41:45.033Z,4.43
2019-03-08T00:46:51.948Z,5.95
2019-03-08T00:51:58.162Z,5.30
2019-03-08T00:57:04.887Z,4.53
2019-03-08T01:02:11.679Z,10.93
2019-03-08T01:07:17.691Z,5.13
2019-03-08T01:12:24.037Z,8.43
2019-03-08T01:17:30.463Z,7.75
2019-03-08T01:22:36.755Z,5.28
2019-03-08T01:28:08.779Z,9.00
2019-03-08T01:33:15.519Z,5.33
2019-03-08T01:38:21.773Z,3.95
2019-03-08T01:43:27.868Z,4.93
2019-03-08T01:48:33.940Z,4.53
2019-03-08T01:53:39.891Z,3.93
2019-03-08T02:03:51.376Z,5.50
2019-03-08T02:08:57.300Z,6.03
2019-03-08T02:14:03.304Z,5.93
2019-03-08T02:19:09.542Z,5.43
2019-03-08T02:24:15.774Z,4.53
2019-03-08T02:29:22.299Z,4.60
2019-03-08T02:34:28.379Z,6.53
2019-03-08T02:39:34.853Z,6.93
2019-03-08T02:44:41.152Z,6.20
2019-03-08T02:49:47.170Z,6.53
2019-03-08T02:54:53.897Z,7.28
2019-03-08T03:00:00.299Z,5.78
2019-03-08T03:10:11.829Z,5.05
2019-03-08T03:15:18.335Z,4.67
2019-03-08T03:20:24.510Z,5.17
2019-03-08T03:25:31.400Z,4.70
2019-03-08T03:30:37.742Z,4.87
2019-03-08T03:35:43.837Z,6.00
2019-03-08T03:40:50.491Z,4.53
2019-03-08T03:51:02.282Z,4.67
2019-03-08T03:56:08.183Z,4.03
2019-03-08T04:01:28.296Z,3.33
2019-03-08T04:06:34.512Z,4.40
2019-03-08T04:11:40.828Z,3.83
2019-03-08T04:16:47.521Z,5.50
2019-03-08T04:21:53.775Z,3.45
2019-03-08T04:26:59.836Z,4.07
2019-03-08T04:32:05.883Z,6.10
2019-03-08T04:37:12.341Z,3.23
2019-03-08T04:42:18.616Z,7.03
2019-03-08T04:47:25.434Z,5.92
2019-03-08T04:52:31.759Z,3.98
2019-03-08T04:57:38.679Z,6.97
2019-03-08T05:02:45.215Z,3.85
2019-03-08T05:07:51.354Z,5.50
2019-03-08T05:12:57.520Z,4.50
2019-03-08T05:18:03.732Z,3.43
2019-03-08T05:23:09.670Z,4.10
2019-03-08T05:28:15.962Z,2.17
2019-03-08T05:33:22.235Z,1.73
2019-03-08T05:43:33.406Z,1.67
2019-03-08T05:48:39.338Z,1.50
2019-03-08T05:53:45.589Z,2.83
2019-03-08T05:58:51.889Z,2.00
2019-03-08T06:03:58.022Z,2.23
2019-03-08T06:09:05.835Z,1.80
2019-03-08T06:19:17.290Z,2.58
2019-03-08T06:24:23.312Z,1.90
2019-03-08T06:29:29.321Z,4.80
2019-03-08T06:34:35.560Z,2.57
2019-03-08T06:39:41.813Z,3.05
2019-03-08T06:44:48.372Z,5.67
2019-03-08T06:49:54.394Z,2.37
2019-03-08T06:55:00.770Z,7.37
2019-03-08T07:00:30.499Z,2.23
2019-03-08T07:05:36.770Z,1.90
2019-03-08T07:10:42.943Z,1.87
2019-03-08T07:15:48.883Z,2.23
2019-03-08T07:21:03.273Z,2.43
2019-03-08T07:26:27.083Z,2.53
2019-03-08T07:32:04.490Z,2.83
2019-03-08T07:37:29.663Z,2.65
2019-03-08T07:42:53.663Z,4.78
2019-03-08T07:48:22.018Z,9.20
2019-03-08T07:54:05.578Z,2.20
2019-03-08T07:59:26.277Z,1.77
2019-03-08T08:04:50.340Z,2.17
2019-03-08T08:10:21.447Z,1.90
2019-03-08T08:15:39.005Z,2.03
2019-03-08T08:21:03.307Z,3.12
2019-03-08T08:26:46.732Z,2.77
2019-03-08T08:32:17.883Z,3.33
2019-03-08T08:37:52.246Z,4.90
2019-03-08T08:43:22.840Z,4.60
2019-03-08T08:48:50.673Z,2.43
2019-03-08T08:54:18.248Z,1.60
2019-03-08T08:59:49.407Z,2.00
2019-03-08T09:05:26.520Z,4.43
2019-03-08T09:10:57.321Z,3.27
2019-03-08T09:16:22.107Z,1.37
2019-03-08T09:21:53.394Z,2.20
2019-03-08T09:27:14.768Z,1.63
2019-03-08T09:32:39.632Z,5.90
2019-03-08T09:37:59.866Z,7.37
2019-03-08T09:43:22.726Z,3.53
2019-03-08T09:48:48.849Z,4.00
2019-03-08T09:54:28.329Z,3.30
2019-03-08T10:00:02.598Z,3.47
2019-03-08T10:05:19.092Z,6.05
2019-03-08T10:10:36.457Z,4.80
2019-03-08T10:16:10.527Z,4.77
2019-03-08T10:21:53.589Z,3.33
2019-03-08T10:27:18.470Z,5.27
2019-03-08T10:32:42.190Z,5.10
2019-03-08T10:37:58.725Z,5.65
2019-03-08T10:43:10.075Z,8.95
2019-03-08T10:48:25.869Z,2.95
2019-03-08T10:53:40.185Z,3.80
2019-03-08T10:59:01.689Z,4.23
2019-03-08T11:04:25.599Z,2.87
2019-03-08T11:09:38.586Z,2.47
2019-03-08T11:15:02.868Z,3.37
2019-03-08T11:20:28.871Z,3.77
2019-03-08T11:25:52.236Z,3.07
2019-03-08T11:31:12.793Z,2.87
2019-03-08T11:36:38.107Z,3.42
2019-03-08T11:42:09.196Z,3.97
2019-03-08T11:47:39.993Z,2.47
2019-03-08T11:53:10.998Z,5.30
2019-03-08T11:58:38.919Z,3.17
2019-03-08T12:04:02.934Z,3.90
2019-03-08T12:09:51.859Z,5.08
2019-03-08T12:15:20.101Z,8.53
2019-03-08T12:20:44.887Z,2.63
2019-03-08T12:26:20.326Z,4.07
2019-03-08T12:31:45.406Z,3.20
2019-03-08T12:37:10.817Z,3.52
2019-03-08T12:42:39.037Z,5.30
2019-03-08T12:48:13.910Z,12.17
2019-03-08T12:53:51.022Z,6.05
2019-03-08T12:59:06.513Z,6.00
2019-03-08T13:04:46.529Z,5.83
2019-03-08T13:09:53.938Z,8.67
2019-03-08T13:15:02.375Z,11.37
2019-03-08T13:20:13.693Z,7.30
2019-03-08T13:25:19.815Z,7.23
2019-03-08T13:30:25.954Z,5.73
2019-03-08T13:35:32.709Z,6.33
2019-03-08T13:40:39.021Z,6.35
2019-03-08T13:45:45.655Z,4.67
2019-03-08T13:55:57.054Z,7.25
2019-03-08T14:01:03.701Z,7.65
2019-03-08T14:06:10.335Z,4.72
2019-03-08T14:11:16.678Z,6.33
2019-03-08T14:16:22.849Z,4.90
2019-03-08T14:21:29.493Z,4.37
2019-03-08T14:26:36.075Z,5.03
2019-03-08T14:31:55.732Z,5.42
2019-03-08T14:37:01.870Z,6.10
2019-03-08T14:42:19.941Z,6.97
2019-03-08T14:47:33.342Z,5.53
2019-03-08T14:52:40.765Z,5.33
2019-03-08T14:57:47.474Z,10.32
2019-03-08T15:02:54.033Z,5.67
2019-03-08T15:08:00.523Z,5.28
2019-03-08T15:13:07.006Z,5.47
2019-03-08T15:18:14.738Z,6.83
2019-03-08T15:23:20.985Z,5.20
2019-03-08T15:28:27.006Z,6.70
2019-03-08T15:33:33.590Z,10.82
2019-03-08T15:38:39.660Z,7.50
2019-03-08T15:43:47.043Z,10.32
2019-03-08T15:48:54.831Z,8.87
2019-03-08T15:54:43.246Z,26.85
2019-03-08T15:59:49.210Z,16.30
2019-03-08T16:04:55.819Z,18.67
2019-03-08T16:10:02.235Z,12.17
2019-03-08T16:15:08.916Z,82.50
2019-03-08T16:20:16.593Z,63.33
2019-03-08T16:25:23.001Z,10.57
2019-03-08T16:30:33.932Z,10.32
2019-03-08T16:35:49.484Z,14.90
2019-03-08T16:41:25.599Z,70.03
2019-03-08T16:46:50.560Z,66.13
2019-03-08T16:52:18.730Z,63.00
2019-03-08T16:57:31.565Z,21.10
2019-03-08T17:02:59.053Z,20.17
2019-03-08T17:08:27.278Z,9.73
2019-03-08T17:13:52.313Z,9.70
2019-03-08T17:19:23.766Z,6.83
2019-03-08T17:24:47.822Z,13.73
2019-03-08T17:30:05.065Z,10.83
2019-03-08T17:35:36.400Z,13.03
2019-03-08T17:41:01.550Z,15.93
2019-03-08T17:48:27.583Z,10.93
2019-03-08T18:08:57.821Z,101.67
2019-03-08T18:14:25.162Z,5.53
2019-03-08T18:42:16.842Z,84.60
2019-03-08T18:47:40.356Z,59.27
2019-03-08T18:53:19.974Z,55.92
2019-03-08T19:00:10.255Z,53.87
2019-03-08T19:48:33.545Z,241.53
2019-03-08T19:54:04.416Z,111.74
2019-03-08T19:59:32.478Z,227.07
2019-03-08T20:02:44.087Z,228.33
2019-03-08T20:03:38.198Z,256.07
2019-03-08T20:04:38.020Z,237.10
2019-03-08T20:05:18.163Z,237.95
2019-03-08T20:06:00.343Z,223.45
2019-03-08T20:06:52.942Z,179.03
2019-03-08T20:07:52.025Z,203.88
2019-03-08T20:08:56.627Z,115.30
2019-03-08T20:10:07.780Z,110.63
2019-03-08T20:10:58.845Z,112.15
2019-03-08T20:12:00.239Z,120.05
2019-03-08T20:12:42.372Z,138.88
2019-03-08T20:13:26.587Z,150.68
2019-03-08T20:14:13.505Z,106.80
2019-03-08T20:15:06.090Z,112.03
2019-03-08T20:16:01.325Z,111.72
2019-03-08T20:16:53.825Z,125.42
2019-03-08T20:17:46.234Z,123.58
2019-03-08T20:18:37.081Z,110.60
2019-03-08T20:20:20.820Z,102.50
2019-03-08T20:21:25.419Z,99.70
2019-03-08T20:22:17.954Z,96.95
2019-03-08T20:22:56.475Z,100.80
2019-03-08T20:23:47.529Z,98.15
2019-03-08T20:24:46.431Z,97.90
2019-03-08T20:25:51.174Z,98.62
2019-03-08T20:29:06.790Z,98.78
2019-03-08T20:29:59.093Z,99.58
2019-03-08T20:30:57.719Z,91.78
2019-03-08T20:31:53.682Z,50.90
2019-03-08T20:32:51.582Z,18.37
2019-03-08T20:33:42.645Z,7.53
2019-03-08T20:34:24.819Z,10.50
2019-03-08T20:35:17.205Z,15.50
2019-03-08T20:36:15.668Z,12.85
2019-03-08T20:37:11.201Z,9.75
2019-03-08T20:38:15.715Z,13.37
2019-03-08T20:39:06.324Z,8.55
2019-03-08T20:39:45.624Z,9.00
2019-03-08T20:40:40.874Z,8.90
2019-03-08T20:41:42.340Z,10.95
2019-03-08T20:42:38.172Z,9.73
2019-03-08T20:43:24.710Z,11.28
2019-03-08T20:44:02.155Z,8.93
2019-03-08T20:44:47.597Z,8.70
2019-03-08T20:46:03.361Z,9.03
2019-03-08T20:46:43.303Z,9.43
2019-03-08T20:47:20.545Z,8.15
2019-03-08T20:47:53.774Z,8.40
2019-03-08T20:48:26.847Z,8.95
2019-03-08T20:49:00.253Z,8.88
2019-03-08T20:49:33.321Z,8.90
2019-03-08T20:50:09.036Z,9.38
2019-03-08T20:50:42.302Z,8.88
2019-03-08T20:51:15.381Z,8.63
2019-03-08T20:51:49.157Z,9.75
2019-03-08T20:52:22.085Z,9.33
2019-03-08T20:52:55.233Z,9.20
2019-03-08T20:53:28.526Z,9.58
2019-03-08T20:59:11.709Z,8.55
2019-03-08T20:59:44.620Z,8.18
2019-03-08T21:00:18.226Z,9.18
2019-03-08T21:00:51.463Z,9.43
2019-03-08T21:02:59.108Z,9.57
2019-03-08T21:03:32.169Z,10.68
2019-03-08T21:04:05.401Z,11.70
2019-03-08T21:04:38.371Z,11.97
2019-03-08T21:05:11.981Z,11.60
2019-03-08T21:05:44.965Z,11.35
2019-03-08T21:06:18.391Z,11.83
2019-03-08T21:06:51.547Z,9.30
2019-03-08T21:07:24.896Z,8.67
2019-03-08T21:07:58.100Z,11.35
2019-03-08T21:08:31.180Z,10.95
2019-03-08T21:09:07.834Z,11.03
2019-03-08T21:09:41.397Z,11.20
2019-03-08T21:12:31.444Z,10.18
2019-03-08T21:13:05.063Z,10.03
2019-03-08T21:13:38.208Z,10.18
2019-03-08T21:14:11.155Z,10.98
2019-03-08T21:14:44.187Z,11.03
2019-03-08T21:15:25.089Z,9.30
2019-03-08T21:15:52.041Z,11.18
2019-03-08T21:16:25.080Z,10.68
2019-03-08T21:16:58.407Z,11.65
2019-03-08T21:17:31.371Z,10.30
2019-03-08T21:18:04.431Z,10.70
2019-03-08T21:23:43.569Z,9.60
2019-03-08T21:28:46.817Z,8.73
2019-03-08T21:33:49.848Z,9.33
2019-03-08T21:38:52.967Z,8.43
2019-03-08T21:43:55.911Z,8.63
2019-03-08T21:48:58.882Z,8.05
2019-03-08T21:54:01.915Z,7.12
2019-03-08T21:59:05.005Z,6.87
2019-03-08T22:04:46.115Z,7.97
2019-03-08T22:10:03.960Z,7.15
2019-03-08T22:15:07.357Z,5.92
2019-03-08T22:20:10.702Z,7.83
2019-03-08T22:25:13.776Z,7.95
2019-03-08T22:30:17.292Z,7.05
2019-03-08T22:35:20.569Z,6.65
2019-03-08T22:40:23.677Z,6.97
2019-03-08T22:45:26.820Z,7.37
2019-03-08T22:50:30.179Z,5.97
2019-03-08T22:55:33.184Z,5.85
2019-03-08T23:00:59.221Z,5.17
2019-03-08T23:06:02.425Z,3.98
2019-03-08T23:11:06.024Z,4.53
2019-03-08T23:16:09.224Z,4.60
2019-03-08T23:21:12.556Z,3.40
2019-03-08T23:26:15.705Z,3.92
2019-03-08T23:31:26.314Z,4.00
2019-03-08T23:36:29.566Z,3.92
2019-03-08T23:41:32.758Z,3.45
2019-03-08T23:46:35.988Z,5.50
2019-03-08T23:51:39.035Z,3.98
2019-03-08T23:56:42.544Z,5.58
